F/V Argentario — FGPE — position and weather

sailwx.info

Track history (hours):
 
Tides and Currents Weather Stations Pressure Air Temp Water Temp Dewpoint Dewpoint Depression Visibility Wind Speed Wind Dir Waves Ship Positions

F/V Argentario

Last reported at 2018-Jan-18 17:31 UTC. Time now 2018-Jan-18 17:48 UTC.
Position N 46°05' W 001°50'.

Length 22 m; draft 3.4 m.

Type: Fishing. MMSI: 228975000.

Date/timePositionNaut miles runAvg speedWind from/ knotsBaromVisibWave heightAir tempDewpointWater temp
2018-Jan-18 17:31N 46°05' W 001°50'0 0.0
2018-Jan-18 17:00N 46°05' W 001°50'0 0.0
2018-Jan-18 16:30N 46°05' W 001°50'0 0.0
2018-Jan-18 16:00N 46°05' W 001°50'2 2.5
2018-Jan-18 15:07N 46°07' W 001°52'1 5.4
2018-Jan-18 15:00N 46°06' W 001°52'1 1.3
2018-Jan-18 14:12N 46°07' W 001°52'1 4.6
2018-Jan-18 14:00N 46°06' W 001°51'1 1.2
2018-Jan-18 13:09N 46°07' W 001°51'1 4.9
2018-Jan-18 13:00N 46°07' W 001°51'3 4.9
2018-Jan-18 12:21N 46°04' W 001°53'1 2.0
2018-Jan-18 11:52N 46°03' W 001°52'2 0.9
2018-Jan-18 09:32N 46°05' W 001°51'0 4.0
2018-Jan-18 09:30N 46°05' W 001°51'1 1.4
2018-Jan-18 08:59N 46°04' W 001°51'1 2.1
2018-Jan-18 08:26N 46°03' W 001°51'1 2.4
2018-Jan-18 07:56N 46°02' W 001°51'1 0.8
2018-Jan-18 06:47N 46°03' W 001°51'2 1.7
2018-Jan-18 05:31N 46°05' W 001°51'0 0.6
2018-Jan-18 05:28N 46°05' W 001°51'1 2.1
2018-Jan-18 05:00N 46°04' W 001°51'3 2.2
2018-Jan-18 03:33N 46°01' W 001°51'0 0.0
2018-Jan-18 03:25N 46°01' W 001°51'0 0.0
2018-Jan-18 02:59N 46°01' W 001°51'0 0.1
2018-Jan-18 02:28N 46°01' W 001°51'  
Track history (hours):
 
Tides and Currents Weather Stations Pressure Air Temp Water Temp Dewpoint Dewpoint Depression Visibility Wind Speed Wind Dir Waves Ship Positions

F/V Argentario

Last reported at 2018-Jan-18 17:31 UTC. Time now 2018-Jan-18 17:48 UTC.
Position N 46°05' W 001°50'.

Length 22 m; draft 3.4 m.

Type: Fishing. MMSI: 228975000.

Date/timePositionNaut miles runAvg speedWind from/ knotsBaromVisibWave heightAir tempDewpointWater temp
2018-Jan-18 17:31N 46°05' W 001°50'0 0.0
2018-Jan-18 17:00N 46°05' W 001°50'0 0.0
2018-Jan-18 16:30N 46°05' W 001°50'0 0.0
2018-Jan-18 16:00N 46°05' W 001°50'2 2.5
2018-Jan-18 15:07N 46°07' W 001°52'1 5.4
2018-Jan-18 15:00N 46°06' W 001°52'1 1.3
2018-Jan-18 14:12N 46°07' W 001°52'1 4.6
2018-Jan-18 14:00N 46°06' W 001°51'1 1.2
2018-Jan-18 13:09N 46°07' W 001°51'1 4.9
2018-Jan-18 13:00N 46°07' W 001°51'3 4.9
2018-Jan-18 12:21N 46°04' W 001°53'1 2.0
2018-Jan-18 11:52N 46°03' W 001°52'2 0.9
2018-Jan-18 09:32N 46°05' W 001°51'0 4.0
2018-Jan-18 09:30N 46°05' W 001°51'1 1.4
2018-Jan-18 08:59N 46°04' W 001°51'1 2.1
2018-Jan-18 08:26N 46°03' W 001°51'1 2.4
2018-Jan-18 07:56N 46°02' W 001°51'1 0.8
2018-Jan-18 06:47N 46°03' W 001°51'2 1.7
2018-Jan-18 05:31N 46°05' W 001°51'0 0.6
2018-Jan-18 05:28N 46°05' W 001°51'1 2.1
2018-Jan-18 05:00N 46°04' W 001°51'3 2.2
2018-Jan-18 03:33N 46°01' W 001°51'0 0.0
2018-Jan-18 03:25N 46°01' W 001°51'0 0.0
2018-Jan-18 02:59N 46°01' W 001°51'0 0.1
2018-Jan-18 02:28N 46°01' W 001°51'  

Dump ship's entire track history